Weather reports worldwide

Advertisment
Mende, France (7554): temperature & dewpoint: 16.08.2019 20:00:00 - 22.08.2019 20:00:00 (CEST)Mende, France (7554): temperature 5cm: 16.08.2019 20:00:00 - 22.08.2019 20:00:00 (CEST)Mende, France (7554): temperature -20cm & temperature -100cm: 16.08.2019 20:00:00 - 22.08.2019 20:00:00 (CEST)Mende, France (7554): wind speed & gusts: 16.08.2019 20:00:00 - 22.08.2019 20:00:00 (CEST)Mende, France (7554): wind direction: 16.08.2019 20:00:00 - 22.08.2019 20:00:00 (CEST)Mende, France (7554): visibility: 16.08.2019 20:00:00 - 22.08.2019 20:00:00 (CEST)Mende, France (7554): sunshine duration: 16.08.2019 20:00:00 - 22.08.2019 20:00:00 (CEST)Mende, France (7554): precipitation: 16.08.2019 20:00:00 - 22.08.2019 20:00:00 (CEST)
Date & Time tt [°C] td [°C] tt 5cm [°C] tt -20cm [°C] tt -100cm [°C] ff [km/h] ff [kn] fx [km/h] fx [kn] dd vv [km] sd [min] rr [mm]
22.08.2019 20:00:00 22,7 9,5 21,7 18,8 17,8 8 4 21 11 NE 20 60 0,0
22.08.2019 19:00:00 24,9 9,2 26,7 18,6 17,7 9 5 27 15 NE 20 45 0,0
22.08.2019 18:00:00 24,8 8,7 25,6 18,5 17,8 8 5 23 12 ENE 20 20 0,0
22.08.2019 17:00:00 26,5 10,2 26,8 18,3 17,8 10 6 30 16 E 20 24 0,0
22.08.2019 16:00:00 27,4 9,7 34,1 18,3 17,8 8 4 24 13 E 20 58 0,0
22.08.2019 15:00:00 27,3 9,6 33,6 18,3 17,8 6 4 21 12 ESE 20 53 0,0
22.08.2019 14:00:00 26,2 10,4 31,0 18,3 17,8 8 4 16 9 SSE 20 56 0,0
22.08.2019 13:00:00 24,2 11,2 27,7 18,4 17,8 4 2 13 7 E 20 35 0,0
22.08.2019 12:00:00 23,5 11,5 28,4 18,5 17,9 5 3 10 6 ESE 20 53 0,0
22.08.2019 11:00:00 20,7 11,3 24,9 18,6 17,9 6 4 11 6 SSE 20 60 0,0
22.08.2019 10:00:00 18,2 10,8 18,5 18,7 17,9 3 1 13 7 SSE 20 60 0,0
22.08.2019 09:00:00 14,8 10,4 13,0 18,8 17,9 7 4 19 10 SE 20 58 0,0
22.08.2019 08:00:00 12,7 9,7 8,3 18,8 17,9 8 4 16 8 E 20 17 0,0
22.08.2019 07:00:00 11,1 9,0 8,2 18,9 17,9 2 1 8 5 E 20 0 0,0
22.08.2019 06:00:00 11,9 9,3 8,4 19,0 17,9 4 2 7 4 ENE 20 0 0,0
22.08.2019 05:00:00 12,1 9,5 8,6 19,0 17,8 4 2 9 5 ENE 20 0 0,0
22.08.2019 04:00:00 12,5 9,5 9,1 19,0 17,9 6 4 10 5 E 20 0 0,0
22.08.2019 03:00:00 12,4 9,0 9,5 19,1 17,8 3 2 8 4 E 20 0 0,0
22.08.2019 02:00:00 13,2 9,1 9,8 19,0 17,9 4 2 9 5 E 20 0 0,0
22.08.2019 01:00:00 13,3 9,0 9,8 19,0 17,9 5 3 21 11 E 20 0 0,0
22.08.2019 00:00:00 13,7 9,1 10,6 18,9 17,9 3 2 12 6 NNE 20 0 0,0
21.08.2019 23:00:00 14,4 9,0 11,1 18,7 17,9 7 4 14 8 ENE 20 0 0,0
21.08.2019 22:00:00 14,9 8,8 12,4 18,6 17,9 7 4 31 17 NE 20 0 0,0
21.08.2019 21:00:00 16,1 8,8 14,8 18,4 17,9 12 6 26 14 E 20 17 0,0
21.08.2019 20:00:00 17,9 8,2 17,4 18,3 17,9 11 6 34 18 NE 20 60 0,0
21.08.2019 19:00:00 19,9 8,2 25,6 18,1 17,9 16 8 37 20 NE 20 60 0,0
21.08.2019 18:00:00 21,4 6,5 27,3 18,0 17,9 22 12 33 18 NNE 20 60 0,0
21.08.2019 17:00:00 22,2 7,2 26,6 18,0 17,9 14 7 32 17 N 20 51 0,0
21.08.2019 16:00:00 21,2 6,3 24,3 17,9 17,9 14 8 36 19 NE 20 48 0,0
21.08.2019 15:00:00 19,7 6,4 24,2 18,0 17,9 18 10 35 19 NNE 20 15 0,0
21.08.2019 14:00:00 19,9 7,3 24,5 18,0 17,9 17 9 32 17 NNE 20 36 0,0
21.08.2019 13:00:00 19,6 6,3 21,5 18,1 17,9 16 9 42 23 NE 20 54 0,0
21.08.2019 12:00:00 17,5 6,4 23,1 18,2 17,9 19 10 38 21 ENE 20 57 0,0
21.08.2019 11:00:00 17,2 5,8 20,2 18,3 17,9 16 9 35 19 NNE 20 60 0,0
21.08.2019 10:00:00 15,0 6,3 16,4 18,4 17,9 19 10 38 20 NNE 20 60 0,0
21.08.2019 09:00:00 13,1 5,7 11,2 18,5 17,9 16 9 31 17 NE 20 60 0,0
21.08.2019 08:00:00 11,3 4,5 7,6 18,7 17,9 12 7 22 12 NNE 20 18 0,0
21.08.2019 07:00:00 10,7 3,2 7,4 18,8 17,9 14 8 23 12 NE 20 0 0,0
21.08.2019 06:00:00 11,0 3,3 8,5 18,9 18,0 12 7 26 14 ENE 20 0 0,0
21.08.2019 05:00:00 11,4 3,4 8,1 19,0 17,9 13 7 28 15 NE 20 0 0,0
21.08.2019 04:00:00 11,5 3,5 8,6 19,1 17,9 15 8 30 16 ENE 20 0 0,0
21.08.2019 03:00:00 10,5 4,4 5,8 19,1 17,9 9 5 28 15 ENE 20 0 0,0
21.08.2019 02:00:00 10,0 4,6 5,9 19,2 18,0 3 2 12 7 N 20 0 0,0
21.08.2019 01:00:00 10,1 5,5 5,9 19,2 17,9 4 2 14 8 NW 20 0 0,0
21.08.2019 00:00:00 10,5 6,3 7,7 19,2 17,9 4 2 27 15 NW 20 0 0,0
20.08.2019 23:00:00 11,6 7,1 9,6 19,2 18,0 13 7 22 12 NNE 20 0 0,0
20.08.2019 22:00:00 12,0 7,3 10,0 19,2 18,0 8 5 26 14 NE 20 0 0,0
20.08.2019 21:00:00 12,6 7,9 11,1 19,2 17,9 9 5 31 17 ENE 20 21 0,0
20.08.2019 20:00:00 14,2 8,4 13,8 19,3 17,9 12 7 35 19 NE 20 60 0,0
20.08.2019 19:00:00 15,1 8,3 17,2 19,3 17,9 15 8 36 19 NNE 20 44 0,0
20.08.2019 18:00:00 15,8 9,5 18,9 19,4 17,9 12 7 33 18 NNE 20 51 0,0
20.08.2019 17:00:00 14,9 8,8 15,0 19,5 18,0 13 7 29 16 NNE 20 7 0,0
20.08.2019 16:00:00 13,6 8,8 13,0 19,5 17,9 3 2 24 13 NW 20 0 0,0
20.08.2019 15:00:00 13,6 10,0 13,5 19,6 17,9 7 4 21 11 N 20 0 0,0
20.08.2019 14:00:00 13,2 10,7 13,4 19,7 17,9 6 4 15 8 E 20 0 0,0
20.08.2019 13:00:00 13,0 11,7 13,3 19,8 18,0 6 4 15 8 W 20 0 0,0
20.08.2019 12:00:00 13,2 12,3 13,1 19,9 18,0 6 3 15 8 WNW 15 0 0,0
20.08.2019 11:00:00 13,0 11,9 13,1 20,0 18,0 4 2 7 4 SSE 1,1 0 0,0
20.08.2019 10:00:00 12,8 12,0 12,3 20,1 17,9 5 3 11 6 SW 3,8 0 0,0
20.08.2019 09:00:00 12,2 11,3 12,2 20,2 17,9 4 2 12 7 SE 13 0 0,0
20.08.2019 08:00:00 12,1 11,0 11,7 20,3 18,0 2 1 11 6 WSW 2,1 0 0,0
20.08.2019 07:00:00 12,2 11,1 11,8 20,3 17,9 5 3 10 5 E 8 0 0,0
20.08.2019 06:00:00 12,4 11,1 11,9 20,4 17,9 5 3 13 7 SE 9 0 0,0
20.08.2019 05:00:00 12,9 11,6 12,4 20,5 17,9 6 3 15 8 NNE 14 0 0,0
20.08.2019 04:00:00 13,5 11,9 12,8 20,5 18,0 9 5 17 9 E 16 0 0,0
20.08.2019 03:00:00 14,4 11,4 13,3 20,5 17,9 0 0 5 3 N 18 0 0,0
20.08.2019 02:00:00 14,7 10,7 14,3 20,6 17,9 5 3 14 8 E 20 0 0,0
20.08.2019 01:00:00 15,5 11,5 15,2 20,6 17,9 8 4 19 10 E 20 0 0,0
20.08.2019 00:00:00 15,7 12,3 14,6 20,6 17,9 10 5 16 9 NE 20 0 0,0
19.08.2019 23:00:00 15,1 12,2 15,1 20,7 17,9 6 4 10 5 WNW 20 0 0,0
19.08.2019 22:00:00 15,5 12,6 15,0 20,7 17,9 8 4 11 6 WNW 20 0 0,0
19.08.2019 21:00:00 16,2 13,1 16,0 20,7 17,9 5 3 13 7 W 20 16 0,0
19.08.2019 20:00:00 17,4 13,9 17,6 20,7 17,9 8 4 13 7 WSW 20 0 0,0
19.08.2019 19:00:00 19,0 14,0 20,4 20,8 17,9 7 4 12 6 NNW 20 0 0,0
19.08.2019 18:00:00 18,3 13,8 19,6 20,8 17,9 5 3 13 7 N 20 0 0,0
19.08.2019 17:00:00 17,5 14,0 19,0 20,8 17,9 6 4 11 6 W 20 0 0,0
19.08.2019 16:00:00 16,9 13,6 18,9 20,9 17,9 7 4 13 7 WSW 20 0 0,0
19.08.2019 15:00:00 17,8 13,9 19,2 21,0 17,9 7 4 11 6 W 20 0 0,0
19.08.2019 14:00:00 16,3 13,6 17,5 21,0 17,9 5 3 13 7 W 20 0 0,0
19.08.2019 13:00:00 15,5 13,3 17,5 21,2 17,9 6 3 10 6 W 20 0 0,0
19.08.2019 12:00:00 15,0 13,4 16,5 21,2 17,9 8 5 16 9 SW 8 0 0,0
19.08.2019 11:00:00 14,5 13,2 15,4 21,3 17,9 8 4 17 9 W 2,2 0 0,0
19.08.2019 10:00:00 14,8 13,7 14,8 21,4 17,9 9 5 18 10 WSW 0,6 0 0,0
19.08.2019 09:00:00 15,3 14,0 15,2 21,4 17,9 3 2 15 8 W 20 0 0,0
19.08.2019 08:00:00 15,9 14,4 15,7 21,5 17,9 4 2 12 6 WSW 20 0 0,0
19.08.2019 07:00:00 16,4 14,6 15,7 21,6 17,9 4 2 7 4 WNW 20 0 0,0
19.08.2019 06:00:00 16,8 13,3 15,3 21,6 17,9 5 3 16 8 ESE 20 0 0,0
19.08.2019 05:00:00 17,7 16,4 16,5 21,6 17,8 4 2 8 5 W 4,8 0 0,0
19.08.2019 04:00:00 17,9 15,9 16,8 21,7 17,9 4 2 7 4 ENE 20 0 0,0
19.08.2019 03:00:00 18,1 15,4 17,7 21,7 17,9 2 1 13 7 NE 20 0 0,0
19.08.2019 02:00:00 18,3 15,4 17,7 21,7 17,8 0 0 14 8 N 20 0 0,0
19.08.2019 01:00:00 18,3 15,0 18,0 21,7 17,9 0 0 11 6 N 20 0 0,0
19.08.2019 00:00:00 18,6 14,9 17,4 21,6 17,9 9 5 16 8 S 20 0 0,0
18.08.2019 23:00:00 18,3 14,8 15,8 21,5 17,8 9 5 16 9 S 20 0 0,0
18.08.2019 22:00:00 18,8 14,7 16,7 21,4 17,9 5 3 19 11 SSW 20 0 0,0
18.08.2019 21:00:00 20,4 14,1 20,1 21,3 17,9 9 5 24 13 SSW 20 0 0,0
18.08.2019 20:00:00 21,2 14,8 21,1 21,2 17,9 13 7 24 13 S 20 10 0,0
18.08.2019 19:00:00 22,6 14,9 24,0 21,1 17,9 15 8 27 15 S 20 28 0,0
18.08.2019 18:00:00 23,4 15,2 25,0 21,0 17,9 17 9 30 16 S 20 24 0,0
18.08.2019 17:00:00 24,2 15,1 25,2 20,9 17,8 13 7 32 17 SSE 20 13 0,0
18.08.2019 16:00:00 26,1 15,2 32,3 20,9 17,9 20 11 35 19 SSE 20 60 0,0
18.08.2019 15:00:00 25,4 15,1 32,3 20,9 17,9 23 12 38 21 S 20 60 0,0
18.08.2019 14:00:00 25,0 15,3 28,1 21,0 17,9 21 11 37 20 SSE 20 56 0,0
18.08.2019 13:00:00 23,8 14,5 27,8 21,0 17,9 22 12 37 20 S 20 53 0,0
18.08.2019 12:00:00 22,8 14,1 25,7 21,1 17,9 17 9 40 22 SSE 20 58 0,0
18.08.2019 11:00:00 21,7 13,8 21,7 21,2 17,8 15 8 35 19 SSE 20 43 0,0
18.08.2019 10:00:00 20,2 13,4 22,2 21,3 17,9 15 8 35 19 SSE 20 56 0,0
18.08.2019 09:00:00 19,4 13,3 18,7 21,4 17,9 15 8 31 17 SE 20 60 0,0
18.08.2019 08:00:00 18,1 12,8 16,3 21,5 17,8 16 8 34 19 SE 20 27 0,0
18.08.2019 07:00:00 17,7 9,3 13,8 21,6 17,9 8 4 27 14 SE 20 0 0,0
18.08.2019 06:00:00 18,1 7,5 14,7 21,6 17,9 4 2 25 14 S 20 0 0,0
18.08.2019 05:00:00 18,2 8,2 16,2 21,6 17,9 9 5 26 14 E 20 0 0,0
18.08.2019 04:00:00 18,8 8,2 15,0 21,6 17,9 8 4 18 10 E 20 0 0,0
18.08.2019 03:00:00 17,1 9,8 15,0 21,5 17,9 9 5 16 9 E 20 0 0,0
18.08.2019 02:00:00 17,5 10,4 - - - 9 5 15 8 E 20 - -
18.08.2019 01:00:00 17,9 10,3 16,5 21,3 17,9 8 5 11 6 E 20 0 0,0
18.08.2019 00:00:00 19,1 10,4 15,8 21,2 17,9 4 2 8 5 ESE 20 0 0,0
17.08.2019 23:00:00 20,0 10,1 15,2 20,9 17,9 4 2 14 8 W 20 0 0,0
17.08.2019 22:00:00 22,2 10,3 20,7 20,7 17,9 11 6 25 14 S 20 0 0,0
17.08.2019 21:00:00 24,0 11,3 22,8 20,5 17,9 15 8 24 13 S 20 26 0,0
17.08.2019 20:00:00 27,3 11,7 26,5 20,3 17,9 12 6 26 14 SW 20 60 0,0
17.08.2019 19:00:00 30,3 10,8 35,1 20,1 17,9 15 8 28 15 W 20 60 0,0
17.08.2019 18:00:00 31,3 10,1 36,0 20,0 17,9 20 11 39 21 WNW 20 57 0,0
17.08.2019 17:00:00 31,9 9,4 35,8 19,9 17,9 17 9 35 19 WSW 20 57 0,0
17.08.2019 16:00:00 31,3 9,5 35,9 19,9 17,9 14 8 33 18 SSW 20 60 0,0
17.08.2019 15:00:00 30,6 9,5 37,2 19,9 17,9 13 7 27 14 SW 20 60 0,0
17.08.2019 14:00:00 29,0 9,2 36,4 19,9 17,9 12 7 22 12 WNW 20 60 0,0
17.08.2019 13:00:00 27,2 6,0 34,2 20,0 17,9 9 5 23 13 W 20 60 0,0
17.08.2019 12:00:00 25,3 4,9 27,4 20,1 17,9 5 3 18 10 WSW 20 60 0,0
17.08.2019 11:00:00 21,7 6,8 25,5 20,3 17,9 6 3 12 7 W 20 38 0,0
17.08.2019 10:00:00 20,1 8,1 20,8 20,4 18,0 4 2 10 5 SE 20 60 0,0
17.08.2019 09:00:00 16,5 6,9 13,3 20,5 17,9 6 3 9 5 ESE 20 60 0,0
17.08.2019 08:00:00 12,0 4,9 10,4 20,6 17,9 8 4 16 9 ESE 20 22 0,0
17.08.2019 07:00:00 11,3 3,8 10,1 20,7 17,9 10 5 15 8 ESE 20 0 0,0
17.08.2019 06:00:00 11,8 3,0 10,6 20,7 18,0 12 7 15 8 ESE 20 0 0,0
17.08.2019 05:00:00 11,9 2,9 10,5 20,8 18,0 11 6 14 8 SE 20 0 0,0
17.08.2019 04:00:00 12,0 2,7 10,8 20,7 17,9 10 5 13 7 ESE 20 0 0,0
17.08.2019 03:00:00 13,2 2,7 11,3 20,7 18,0 7 4 15 8 SE 20 0 0,0
17.08.2019 02:00:00 13,6 2,8 12,6 20,7 17,9 12 7 14 8 ESE 20 0 0,0
17.08.2019 01:00:00 15,0 2,5 13,7 20,5 18,0 9 5 12 7 ESE 20 0 0,0
17.08.2019 00:00:00 16,1 2,1 15,2 20,4 17,9 10 5 13 7 ESE 20 0 0,0
16.08.2019 23:00:00 17,2 1,2 13,4 20,2 18,0 10 5 12 6 SE 20 0 0,0
16.08.2019 22:00:00 17,9 0,1 14,2 20,0 18,0 3 1 9 5 W 20 0 0,0
16.08.2019 21:00:00 20,1 -1,7 16,4 19,8 18,0 6 3 13 7 W 20 26 0,0
16.08.2019 20:00:00 24,2 -1,6 23,0 19,6 17,9 7 4 18 10 W 20 52 0,0

tt = temperature
td = dewpoint
tt 5cm = temperature 5cm
tt -20cm = temperature -20cm
tt -100cm = temperature -100cm
ff = wind speed
fx = gusts
dd = wind direction
vv = visibility
sd = sunshine duration
rr = precipitation

Next stations